• Join FlightAware (Why Join?)
  • Login
  • US Flag 
04:13PM EDT


 

Airport Tracker/Info


-or-


 

Live Flight TrackerFlight Track Log ✈ ERR736 ✈ 24-Jul-2013 ✈ PAFA / FAI - PAGA / GAL

Flight Track Log - Related Links

Times and Time Zones

All times are in EDT time to prevent confusion due to time zone crossing. See the ERR736 flight status page for this flight to view local times or setup timezone preferences in your user account.

Time Position Orientation Groundspeed Altitude Reporting Facility
EDT Latitude Longitude Course Direction KTS MPH feet Rate Location/Type
06:24PM 64.7500 -148.1000 276° West 160 184 6,900  Level Anchorage Center
06:25PM 64.7667 -148.2167 289° West 160 184 8,700 1,500 Climbing Anchorage Center
06:26PM 64.7833 -148.3167 291° West 170 196 10,000 1,380 Climbing Anchorage Center
06:27PM 64.8001 -148.6900 270° West  Level FlightAware Approximate
06:27PM 64.8000 -148.4000 295° West 170 196 11,500  Level Anchorage Center
06:28PM 64.8013 -148.8298 276° West  Level FlightAware Approximate
06:28PM 64.8000 -148.5167 270° West 180 207 12,700  Level Anchorage Center
06:29PM 64.8075 -148.9691 276° West  Level FlightAware Approximate
06:29PM 64.8000 -148.6333 270° West 180 207 13,900  Level Anchorage Center
06:30PM 64.8135 -149.1085 276° West  Level FlightAware Approximate
06:30PM 64.8000 -148.7500 270° West 180 207 15,000  Level Anchorage Center
06:31PM 64.8000 -148.8833 270° West 180 207 15,900 900 Climbing Anchorage Center
06:32PM 64.8167 -149.0000 289° West 180 207 16,900 900 Climbing Anchorage Center
06:33PM 64.8167 -149.1167 270° West 180 207 17,800 900 Climbing Anchorage Center
06:34PM 64.8167 -149.2333 270° West 180 207 18,800 840 Climbing Anchorage Center
06:35PM 64.8167 -149.3667 270° West 180 207 19,500 720 Climbing Anchorage Center
06:36PM 64.8167 -149.4833 270° West 190 219 20,300 720 Climbing Anchorage Center
06:37PM 64.8167 -149.6000 270° West 190 219 21,000 720 Climbing Anchorage Center
06:38PM 64.8167 -149.7333 270° West 180 207 21,800 660 Climbing Anchorage Center
06:39PM 64.8167 -149.8500 270° West 190 219 22,400 600 Climbing Anchorage Center
06:40PM 64.8167 -149.9667 270° West 180 207 23,100 540 Climbing Anchorage Center
06:41PM 64.8167 -150.0833 270° West 190 219 23,600 420 Climbing Anchorage Center
06:42PM 64.8167 -150.2167 270° West 190 219 24,000 180 Climbing Anchorage Center
06:43PM 64.8333 -150.3500 286° West 210 242 24,000  Level Anchorage Center
06:44PM 64.8333 -150.4833 270° West 220 253 24,000  Level Anchorage Center
06:45PM 64.8333 -150.6333 270° West 230 265 24,000  Level Anchorage Center
06:46PM 64.8333 -150.7833 270° West 230 265 24,000  Level Anchorage Center
06:47PM 64.8333 -150.9333 270° West 230 265 24,000  Level Anchorage Center
06:48PM 64.8333 -151.0833 270° West 230 265 24,000  Level Anchorage Center
06:49PM 64.8333 -151.2333 270° West 240 276 24,000  Level Anchorage Center
06:50PM 64.8333 -151.3833 270° West 230 265 24,000  Level Anchorage Center
06:51PM 64.8333 -151.5333 270° West 230 265 24,000  Level Anchorage Center
06:52PM 64.8333 -151.6833 270° West 230 265 24,000  Level Anchorage Center
06:53PM 64.8333 -151.8333 270° West 230 265 24,000  Level Anchorage Center
06:54PM 64.8333 -151.9833 270° West 230 265 24,000  Level Anchorage Center
06:55PM 64.8167 -152.1333 255° West 210 242 24,000  Level Anchorage Center
06:56PM 64.8167 -152.2833 270° West 220 253 24,000  Level Anchorage Center
06:57PM 64.8167 -152.4333 270° West 240 276 24,000  Level Anchorage Center
06:58PM 64.8167 -152.5833 270° West 240 276 24,000  Level Anchorage Center
07:00PM 64.8167 -152.7333 270° West 230 265 24,000  Level Anchorage Center
07:01PM 64.8167 -152.8833 270° West 230 265 24,000  Level Anchorage Center
07:02PM 64.8167 -153.0333 270° West 230 265 24,000  Level Anchorage Center
07:03PM 64.8167 -153.2000 270° West 230 265 24,000  Level Anchorage Center
07:04PM 64.8167 -153.3500 270° West 240 276 24,000  Level Anchorage Center
07:05PM 64.8167 -153.5000 270° West 230 265 24,000  Level Anchorage Center
07:06PM 64.8167 -153.6500 270° West 240 276 24,000  Level Anchorage Center
07:07PM 64.8000 -153.8000 255° West 230 265 24,000  Level Anchorage Center
07:08PM 64.8000 -153.9667 270° West 230 265 24,000  Level Anchorage Center
07:09PM 64.8000 -154.1167 270° West 230 265 24,000  Level Anchorage Center
07:10PM 64.8000 -154.2667 270° West 240 276 24,000 -120 Level Anchorage Center
07:11PM 64.7833 -154.4167 255° West 230 265 23,800 -900 Descending Anchorage Center
07:12PM 64.7833 -154.5833 270° West 250 288 22,200 -1,560 Descending Anchorage Center
07:13PM 64.7833 -154.7500 270° West 270 311 20,700 -1,620 Descending Anchorage Center
07:14PM 64.7667 -154.9333 258° West 270 311 19,000 -1,620 Descending Anchorage Center
07:15PM 64.7667 -155.1000 270° West 270 311 17,500 -1,680 Descending Anchorage Center
07:16PM 64.7667 -155.2833 270° West 280 322 15,700 -1,800 Descending Anchorage Center
07:17PM 64.7667 -155.4500 270° West 250 288 13,900 -1,800 Descending Anchorage Center
07:18PM 64.7500 -155.6167 257° West 270 311 12,100 -1,920 Descending Anchorage Center
07:19PM 64.7500 -155.7833 270° West 240 276 10,100 -1,860 Descending Anchorage Center
07:20PM 64.7500 -155.9167 270° West 210 242 8,400 -1,560 Descending Anchorage Center
07:21PM 64.7333 -156.0500 254° West 190 219 7,000 -1,500 Descending Anchorage Center
07:22PM 64.7333 -156.1667 270° West 180 207 5,400 -1,380 Descending Anchorage Center
07:23PM 64.7333 -156.2833 270° West 190 219 4,300 -1,140 Descending Anchorage Center
07:26PM 64.7353 -156.5433 259° West  Level FlightAware Approximate
07:33PM 64.7333 -156.9333 270° West  Level FlightAware Approximate
07:34PM 64.7362 -156.9374 270° West  Level Estimated
07:35PM 64.7333 -156.9333 270° West  Level FlightAware Approximate
07:36PM 64.7362 -156.9374 270° West  Level Estimated
07:37PM 64.7333 -156.9333 270° West  Level FlightAware Approximate
07:38PM 64.7362 -156.9374 270° West  Level Estimated
07:39PM 64.7333 -156.9333 270° West  Level FlightAware Approximate
07:40PM 64.7362 -156.9374 270° West  Level Estimated
07:41PM 64.7333 -156.9333 270° West  Level FlightAware Approximate
07:42PM 64.7362 -156.9374 270° West  Level Estimated